createdAt,value
2023-02-11T00:00:52.515Z,51.259312
2023-02-11T00:01:52.325Z,51.259304
2023-02-11T00:02:52.266Z,51.259315
2023-02-11T00:03:52.263Z,51.259388
2023-02-11T00:04:52.289Z,51.259361
2023-02-11T00:05:52.511Z,51.259338
2023-02-11T00:06:52.293Z,51.259361
2023-02-11T00:07:52.238Z,51.259411
2023-02-11T00:08:52.212Z,51.259434
2023-02-11T00:09:52.202Z,51.259464
2023-02-11T00:10:52.312Z,51.259468
2023-02-11T00:11:52.211Z,51.259464
2023-02-11T00:12:52.177Z,51.259418
2023-02-11T00:13:52.175Z,51.259457
2023-02-11T00:14:52.167Z,51.259510
2023-02-11T00:15:52.402Z,51.259468
2023-02-11T00:16:52.200Z,51.259491
2023-02-11T00:17:52.143Z,51.259472
2023-02-11T00:18:52.135Z,51.259460
2023-02-11T00:19:52.120Z,51.259411
2023-02-11T00:20:52.116Z,51.259430
2023-02-11T00:21:52.139Z,51.259476
2023-02-11T00:22:52.096Z,51.259464
2023-02-11T00:23:52.092Z,51.259514
2023-02-11T00:24:53.086Z,51.259541
2023-02-11T00:25:52.435Z,51.259533
2023-02-11T00:26:52.092Z,51.259460
2023-02-11T00:27:52.076Z,51.259491
2023-02-11T00:28:52.050Z,51.259235
2023-02-11T00:29:52.049Z,51.259430
2023-02-11T00:30:52.118Z,51.259487
2023-02-11T00:31:52.151Z,51.259468
2023-02-11T00:32:52.017Z,51.259510
2023-02-11T00:33:52.013Z,51.259529
2023-02-11T00:34:52.013Z,51.259571
2023-02-11T00:35:52.286Z,51.259529
2023-02-11T00:36:52.015Z,51.259460
2023-02-11T00:37:52.016Z,51.259541
2023-02-11T00:38:51.990Z,51.259487
2023-02-11T00:39:51.958Z,51.259438
2023-02-11T00:40:51.941Z,51.259480
2023-02-11T00:41:51.935Z,51.259460
2023-02-11T00:42:51.926Z,51.259472
2023-02-11T00:43:51.951Z,51.259518
2023-02-11T00:44:51.920Z,51.259666
2023-02-11T00:45:52.308Z,51.259663
2023-02-11T00:46:51.898Z,51.259796
2023-02-11T00:47:51.895Z,51.259583
2023-02-11T00:48:52.032Z,51.259644
2023-02-11T00:49:51.874Z,51.259544
2023-02-11T00:50:51.857Z,51.259533
2023-02-11T00:51:51.871Z,51.259651
2023-02-11T00:52:51.851Z,51.259663
2023-02-11T00:53:51.834Z,51.259335
2023-02-11T00:54:51.829Z,51.259388
2023-02-11T00:55:52.134Z,51.259518
2023-02-11T00:56:51.837Z,51.259640
2023-02-11T00:57:51.805Z,51.259556
2023-02-11T00:58:51.791Z,51.259548
2023-02-11T00:59:51.776Z,51.259525
2023-02-11T01:00:51.786Z,51.259575
2023-02-11T01:01:51.801Z,51.259502
2023-02-11T01:02:51.768Z,51.259514
2023-02-11T01:03:51.768Z,51.259502
2023-02-11T01:04:51.779Z,51.259571
2023-02-11T01:05:52.099Z,51.259659
2023-02-11T01:06:51.757Z,51.259689
2023-02-11T01:07:51.732Z,51.259617
2023-02-11T01:08:51.727Z,51.259586
2023-02-11T01:09:51.727Z,51.259537
2023-02-11T01:10:51.698Z,51.259472
2023-02-11T01:11:51.704Z,51.259476
2023-02-11T01:12:51.702Z,51.259563
2023-02-11T01:13:51.777Z,51.259541
2023-02-11T01:14:51.689Z,51.259563
2023-02-11T01:15:51.940Z,51.259571
2023-02-11T01:16:51.665Z,51.259571
2023-02-11T01:17:51.656Z,51.259678
2023-02-11T01:18:52.640Z,51.259602
2023-02-11T01:19:51.651Z,51.259579
2023-02-11T01:20:51.625Z,51.259571
2023-02-11T01:21:51.652Z,51.259518
2023-02-11T01:22:51.622Z,51.259628
2023-02-11T01:23:51.601Z,51.259678
2023-02-11T01:24:51.595Z,51.259647
2023-02-11T01:25:51.899Z,51.259617
2023-02-11T01:26:51.596Z,51.259609
2023-02-11T01:27:51.602Z,51.259590
2023-02-11T01:28:51.558Z,51.259567
2023-02-11T01:29:51.574Z,51.259647
2023-02-11T01:30:51.591Z,51.259583
2023-02-11T01:31:51.595Z,51.259632
2023-02-11T01:32:51.543Z,51.259682
2023-02-11T01:33:51.519Z,51.259762
2023-02-11T01:34:51.535Z,51.259636
2023-02-11T01:35:51.769Z,51.259827
2023-02-11T01:36:51.511Z,51.259689
2023-02-11T01:37:51.496Z,51.259647
2023-02-11T01:38:51.482Z,51.259590
2023-02-11T01:39:51.489Z,51.259552
2023-02-11T01:40:51.465Z,51.259487
2023-02-11T01:41:51.470Z,51.259464
2023-02-11T01:42:51.443Z,51.259563
2023-02-11T01:43:51.441Z,51.259552
2023-02-11T01:44:51.437Z,51.259460
2023-02-11T01:45:51.741Z,51.259308
2023-02-11T01:46:51.487Z,51.259392
2023-02-11T01:47:52.409Z,51.259525
2023-02-11T01:48:51.422Z,51.259548
2023-02-11T01:49:51.398Z,51.259541
2023-02-11T01:50:51.389Z,51.259495
2023-02-11T01:51:51.400Z,51.259434
2023-02-11T01:52:51.359Z,51.259422
2023-02-11T01:53:51.575Z,51.259556
2023-02-11T01:54:51.363Z,51.259518
2023-02-11T01:55:51.621Z,51.259548
2023-02-11T01:56:51.355Z,51.259502
2023-02-11T01:57:51.339Z,51.259552
2023-02-11T01:58:51.314Z,51.259571
2023-02-11T01:59:51.308Z,51.259541
2023-02-11T02:00:51.306Z,51.259563
2023-02-11T02:01:51.364Z,51.259552
2023-02-11T02:02:51.273Z,51.259556
2023-02-11T02:03:51.288Z,51.259579
2023-02-11T02:04:51.295Z,51.259590
2023-02-11T02:05:51.596Z,51.259556
2023-02-11T02:06:51.256Z,51.259541
2023-02-11T02:07:51.251Z,51.259491
2023-02-11T02:08:51.235Z,51.259495
2023-02-11T02:09:51.241Z,51.259483
2023-02-11T02:10:51.225Z,51.259495
2023-02-11T02:11:51.241Z,51.259487
2023-02-11T02:12:51.207Z,51.259502
2023-02-11T02:13:51.238Z,51.259544
2023-02-11T02:14:51.201Z,51.259495
2023-02-11T02:15:51.601Z,51.259518
2023-02-11T02:16:51.193Z,51.259556
2023-02-11T02:17:51.164Z,51.259529
2023-02-11T02:18:51.157Z,51.259487
2023-02-11T02:19:51.143Z,51.259502
2023-02-11T02:20:51.131Z,51.259518
2023-02-11T02:21:51.144Z,51.259472
2023-02-11T02:22:51.117Z,51.259533
2023-02-11T02:23:51.117Z,51.259541
2023-02-11T02:24:51.098Z,51.259506
2023-02-11T02:25:51.372Z,51.259514
2023-02-11T02:26:51.113Z,51.259583
2023-02-11T02:27:51.081Z,51.259567
2023-02-11T02:28:51.068Z,51.259525
2023-02-11T02:29:51.061Z,51.259563
2023-02-11T02:30:51.067Z,51.259613
2023-02-11T02:31:51.105Z,51.259579
2023-02-11T02:32:51.044Z,51.259453
2023-02-11T02:33:51.030Z,51.259506
2023-02-11T02:34:51.025Z,51.259563
2023-02-11T02:35:51.329Z,51.259628
2023-02-11T02:36:51.035Z,51.259624
2023-02-11T02:37:50.997Z,51.259529
2023-02-11T02:38:50.992Z,51.259567
2023-02-11T02:39:50.993Z,51.259586
2023-02-11T02:40:50.985Z,51.259510
2023-02-11T02:41:50.997Z,51.259521
2023-02-11T02:42:50.985Z,51.259571
2023-02-11T02:43:50.962Z,51.259541
2023-02-11T02:44:50.951Z,51.259583
2023-02-11T02:45:51.293Z,51.259575
2023-02-11T02:46:50.982Z,51.259567
2023-02-11T02:47:50.952Z,51.259468
2023-02-11T02:48:50.915Z,51.259602
2023-02-11T02:49:50.904Z,51.259621
2023-02-11T02:50:50.919Z,51.259666
2023-02-11T02:51:50.893Z,51.259598
2023-02-11T02:52:50.897Z,51.259655
2023-02-11T02:53:50.875Z,51.259644
2023-02-11T02:54:50.863Z,51.259571
2023-02-11T02:55:51.182Z,51.259594
2023-02-11T02:56:50.847Z,51.259480
2023-02-11T02:57:50.880Z,51.259506
2023-02-11T02:58:50.835Z,51.259720
2023-02-11T02:59:50.830Z,51.259697
2023-02-11T03:00:50.861Z,51.259613
2023-02-11T03:01:50.807Z,51.259567
2023-02-11T03:02:50.825Z,51.259731
2023-02-11T03:03:50.858Z,51.259609
2023-02-11T03:04:50.792Z,51.259647
2023-02-11T03:05:51.184Z,51.259617
2023-02-11T03:06:50.775Z,51.259586
2023-02-11T03:07:50.787Z,51.259670
2023-02-11T03:08:50.749Z,51.259590
2023-02-11T03:09:50.742Z,51.259682
2023-02-11T03:10:50.735Z,51.259682
2023-02-11T03:11:50.727Z,51.259659
2023-02-11T03:12:50.753Z,51.259624
2023-02-11T03:13:50.724Z,51.259617
2023-02-11T03:14:50.710Z,51.259659
2023-02-11T03:15:51.056Z,51.259758
2023-02-11T03:16:50.696Z,51.259785
2023-02-11T03:17:50.714Z,51.259548
2023-02-11T03:18:50.744Z,51.259720
2023-02-11T03:19:50.665Z,51.259670
2023-02-11T03:20:50.666Z,51.259609
2023-02-11T03:21:50.646Z,51.259647
2023-02-11T03:22:50.660Z,51.259583
2023-02-11T03:23:50.634Z,51.259575
2023-02-11T03:24:50.617Z,51.259533
2023-02-11T03:25:50.917Z,51.259342
2023-02-11T03:26:50.616Z,51.259296
2023-02-11T03:27:50.631Z,51.259468
2023-02-11T03:28:50.595Z,51.259594
2023-02-11T03:29:50.590Z,51.259811
2023-02-11T03:30:50.646Z,51.259705
2023-02-11T03:31:50.601Z,51.259594
2023-02-11T03:32:50.590Z,51.259594
2023-02-11T03:33:50.552Z,51.259438
2023-02-11T03:34:50.541Z,51.259373
2023-02-11T03:35:50.797Z,51.259449
2023-02-11T03:36:50.534Z,51.259380
2023-02-11T03:37:50.556Z,51.259426
2023-02-11T03:38:50.521Z,51.259487
2023-02-11T03:39:50.526Z,51.259243
2023-02-11T03:40:50.503Z,51.259525
2023-02-11T03:41:50.493Z,51.259735
2023-02-11T03:42:50.508Z,51.259830
2023-02-11T03:43:50.478Z,51.259693
2023-02-11T03:44:50.462Z,51.259655
2023-02-11T03:45:50.793Z,51.259502
2023-02-11T03:46:50.462Z,51.259510
2023-02-11T03:47:50.462Z,51.259464
2023-02-11T03:48:50.442Z,51.259567
2023-02-11T03:49:50.436Z,51.259670
2023-02-11T03:50:50.428Z,51.259518
2023-02-11T03:51:50.412Z,51.259621
2023-02-11T03:52:50.430Z,51.259590
2023-02-11T03:53:50.402Z,51.259491
2023-02-11T03:54:50.390Z,51.259541
2023-02-11T03:55:50.703Z,51.259434
2023-02-11T03:56:50.382Z,51.259460
2023-02-11T03:57:50.413Z,51.259441
2023-02-11T03:58:50.359Z,51.259464
2023-02-11T03:59:50.361Z,51.259434
2023-02-11T04:00:50.385Z,51.259418
2023-02-11T04:01:50.344Z,51.259377
2023-02-11T04:02:50.395Z,51.259399
2023-02-11T04:03:50.326Z,51.259422
2023-02-11T04:04:50.322Z,51.259476
2023-02-11T04:05:50.606Z,51.259384
2023-02-11T04:06:50.300Z,51.259342
2023-02-11T04:07:50.361Z,51.259342
2023-02-11T04:08:50.336Z,51.259453
2023-02-11T04:09:50.273Z,51.259457
2023-02-11T04:10:50.258Z,51.259491
2023-02-11T04:11:51.262Z,51.259518
2023-02-11T04:12:50.260Z,51.259552
2023-02-11T04:13:50.250Z,51.259510
2023-02-11T04:14:50.231Z,51.259407
2023-02-11T04:15:50.579Z,51.259457
2023-02-11T04:16:50.215Z,51.259361
2023-02-11T04:17:50.236Z,51.259411
2023-02-11T04:18:50.200Z,51.259483
2023-02-11T04:19:50.197Z,51.259590
2023-02-11T04:20:50.203Z,51.259514
2023-02-11T04:21:50.174Z,51.259480
2023-02-11T04:22:50.182Z,51.259529
2023-02-11T04:23:50.162Z,51.259560
2023-02-11T04:24:50.154Z,51.259560
2023-02-11T04:25:50.473Z,51.259453
2023-02-11T04:26:50.144Z,51.259464
2023-02-11T04:27:50.156Z,51.259453
2023-02-11T04:28:50.120Z,51.259598
2023-02-11T04:29:50.115Z,51.259640
2023-02-11T04:30:50.114Z,51.259655
2023-02-11T04:31:50.153Z,51.259476
2023-02-11T04:32:50.103Z,51.259430
2023-02-11T04:33:51.085Z,51.259190
2023-02-11T04:34:50.069Z,51.259113
2023-02-11T04:35:50.388Z,51.259090
2023-02-11T04:36:50.047Z,51.259064
2023-02-11T04:37:50.060Z,51.259495
2023-02-11T04:38:50.034Z,51.259483
2023-02-11T04:39:50.047Z,51.259480
2023-02-11T04:40:50.026Z,51.259525
2023-02-11T04:41:50.013Z,51.259556
2023-02-11T04:42:50.042Z,51.259560
2023-02-11T04:43:49.995Z,51.259602
2023-02-11T04:44:49.992Z,51.259571
2023-02-11T04:45:51.351Z,51.259525
2023-02-11T04:46:49.973Z,51.259499
2023-02-11T04:47:49.983Z,51.259529
2023-02-11T04:48:49.964Z,51.259491
2023-02-11T04:49:49.949Z,51.259518
2023-02-11T04:50:49.944Z,51.259605
2023-02-11T04:51:49.929Z,51.259636
2023-02-11T04:52:49.936Z,51.259579
2023-02-11T04:53:49.913Z,51.259567
2023-02-11T04:54:49.901Z,51.259624
2023-02-11T04:55:50.234Z,51.259445
2023-02-11T04:56:49.888Z,51.259464
2023-02-11T04:57:49.943Z,51.259689
2023-02-11T04:58:49.878Z,51.259579
2023-02-11T04:59:49.857Z,51.259533
2023-02-11T05:00:49.975Z,51.259560
2023-02-11T05:01:49.855Z,51.259556
2023-02-11T05:02:49.905Z,51.259571
2023-02-11T05:03:49.854Z,51.259567
2023-02-11T05:04:49.830Z,51.259594
2023-02-11T05:05:50.186Z,51.259567
2023-02-11T05:06:49.814Z,51.259544
2023-02-11T05:07:49.820Z,51.259571
2023-02-11T05:08:49.797Z,51.259567
2023-02-11T05:09:49.781Z,51.259491
2023-02-11T05:10:49.797Z,51.259579
2023-02-11T05:11:49.781Z,51.259579
2023-02-11T05:12:49.801Z,51.259617
2023-02-11T05:13:49.778Z,51.259647
2023-02-11T05:14:49.740Z,51.259590
2023-02-11T05:15:50.151Z,51.259525
2023-02-11T05:16:49.767Z,51.259541
2023-02-11T05:17:49.715Z,51.259586
2023-02-11T05:18:52.147Z,51.259617
2023-02-11T05:19:50.704Z,51.259720
2023-02-11T05:20:49.684Z,51.259586
2023-02-11T05:22:01.707Z,51.259586
2023-02-11T05:22:51.687Z,51.259518
2023-02-11T05:23:49.652Z,51.259563
2023-02-11T05:24:49.652Z,51.259552
2023-02-11T05:25:49.965Z,51.259617
2023-02-11T05:26:49.637Z,51.259636
2023-02-11T05:27:49.667Z,51.259571
2023-02-11T05:28:49.693Z,51.259506
2023-02-11T05:29:49.603Z,51.259537
2023-02-11T05:30:49.704Z,51.259529
2023-02-11T05:31:49.590Z,51.259552
2023-02-11T05:32:49.594Z,51.259548
2023-02-11T05:33:49.580Z,51.259472
2023-02-11T05:34:49.569Z,51.259567
2023-02-11T05:35:49.897Z,51.259521
2023-02-11T05:36:49.545Z,51.259384
2023-02-11T05:37:49.553Z,51.259415
2023-02-11T05:38:49.539Z,51.259457
2023-02-11T05:39:49.523Z,51.259487
2023-02-11T05:40:49.509Z,51.259548
2023-02-11T05:42:15.913Z,51.259571
2023-02-11T05:42:49.522Z,51.259579
2023-02-11T05:43:49.493Z,51.259453
2023-02-11T05:44:50.703Z,51.259430
2023-02-11T05:45:50.921Z,51.259571
2023-02-11T05:46:49.510Z,51.259556
2023-02-11T05:47:49.486Z,51.259506
2023-02-11T05:48:49.468Z,51.259472
2023-02-11T05:49:49.455Z,51.259521
2023-02-11T05:50:49.431Z,51.259598
2023-02-11T05:51:49.424Z,51.259651
2023-02-11T05:52:49.420Z,51.259556
2023-02-11T05:53:49.427Z,51.259537
2023-02-11T05:54:49.402Z,51.259571
2023-02-11T05:55:49.772Z,51.259560
2023-02-11T05:56:49.390Z,51.259453
2023-02-11T05:57:49.364Z,51.259399
2023-02-11T05:58:49.414Z,51.259350
2023-02-11T05:59:49.356Z,51.259422
2023-02-11T06:00:49.338Z,51.259441
2023-02-11T06:01:49.334Z,51.259464
2023-02-11T06:02:49.368Z,51.259571
2023-02-11T06:03:49.383Z,51.259571
2023-02-11T06:04:49.314Z,51.259556
2023-02-11T06:05:49.647Z,51.259510
2023-02-11T06:06:49.289Z,51.259411
2023-02-11T06:07:49.279Z,51.259441
2023-02-11T06:08:49.313Z,51.259544
2023-02-11T06:09:49.264Z,51.259487
2023-02-11T06:10:49.279Z,51.259472
2023-02-11T06:11:49.245Z,51.259418
2023-02-11T06:12:49.243Z,51.259491
2023-02-11T06:13:49.244Z,51.259605
2023-02-11T06:14:49.217Z,51.259628
2023-02-11T06:15:49.585Z,51.259548
2023-02-11T06:16:49.200Z,51.259609
2023-02-11T06:17:49.197Z,51.259544
2023-02-11T06:18:49.222Z,51.259544
2023-02-11T06:19:49.173Z,51.259598
2023-02-11T06:20:49.167Z,51.259560
2023-02-11T06:21:49.160Z,51.259521
2023-02-11T06:22:49.141Z,51.259571
2023-02-11T06:23:49.184Z,51.259624
2023-02-11T06:25:00.812Z,51.259556
2023-02-11T06:25:51.440Z,51.259510
2023-02-11T06:26:49.109Z,51.259510
2023-02-11T06:27:49.101Z,51.259495
2023-02-11T06:28:49.135Z,51.259590
2023-02-11T06:29:49.099Z,51.259510
2023-02-11T06:30:49.258Z,51.259510
2023-02-11T06:31:49.201Z,51.259575
2023-02-11T06:32:49.175Z,51.259392
2023-02-11T06:33:49.073Z,51.259453
2023-02-11T06:34:49.044Z,51.259583
2023-02-11T06:35:49.399Z,51.259541
2023-02-11T06:36:49.052Z,51.259598
2023-02-11T06:37:49.022Z,51.259605
2023-02-11T06:38:49.042Z,51.259609
2023-02-11T06:39:49.000Z,51.259670
2023-02-11T06:40:48.983Z,51.259563
2023-02-11T06:41:48.987Z,51.259472
2023-02-11T06:42:48.968Z,51.259609
2023-02-11T06:43:48.982Z,51.259552
2023-02-11T06:44:48.955Z,51.259537
2023-02-11T06:45:49.202Z,51.259529
2023-02-11T06:46:48.963Z,51.259502
2023-02-11T06:47:48.941Z,51.259571
2023-02-11T06:48:48.976Z,51.259537
2023-02-11T06:49:48.912Z,51.259476
2023-02-11T06:50:48.900Z,51.259453
2023-02-11T06:51:48.896Z,51.259460
2023-02-11T06:52:48.901Z,51.259499
2023-02-11T06:53:48.909Z,51.259529
2023-02-11T06:54:48.873Z,51.259441
2023-02-11T06:55:49.090Z,51.259480
2023-02-11T06:56:48.863Z,51.259575
2023-02-11T06:57:48.848Z,51.259468
2023-02-11T06:58:48.854Z,51.259552
2023-02-11T06:59:48.899Z,51.259552
2023-02-11T07:00:48.820Z,51.259521
2023-02-11T07:01:48.880Z,51.259438
2023-02-11T07:02:48.814Z,51.259537
2023-02-11T07:03:48.793Z,51.259579
2023-02-11T07:04:49.775Z,51.259548
2023-02-11T07:05:49.065Z,51.259514
2023-02-11T07:06:48.764Z,51.259579
2023-02-11T07:07:48.762Z,51.259548
2023-02-11T07:08:48.766Z,51.259590
2023-02-11T07:09:48.741Z,51.259575
2023-02-11T07:10:48.727Z,51.259666
2023-02-11T07:11:48.715Z,51.259716
2023-02-11T07:12:48.715Z,51.259674
2023-02-11T07:13:48.783Z,51.259747
2023-02-11T07:14:48.688Z,51.259533
2023-02-11T07:15:49.062Z,51.259525
2023-02-11T07:16:48.674Z,51.259575
2023-02-11T07:17:48.660Z,51.259575
2023-02-11T07:18:48.671Z,51.259674
2023-02-11T07:19:48.644Z,51.259640
2023-02-11T07:20:48.654Z,51.259613
2023-02-11T07:21:48.658Z,51.259537
2023-02-11T07:22:48.671Z,51.259468
2023-02-11T07:23:48.647Z,51.259556
2023-02-11T07:24:48.601Z,51.259666
2023-02-11T07:25:48.849Z,51.259674
2023-02-11T07:26:48.589Z,51.259739
2023-02-11T07:27:48.597Z,51.259598
2023-02-11T07:28:48.597Z,51.259552
2023-02-11T07:29:48.559Z,51.259445
2023-02-11T07:30:48.567Z,51.259552
2023-02-11T07:31:48.802Z,51.259575
2023-02-11T07:32:48.533Z,51.259510
2023-02-11T07:33:48.530Z,51.259518
2023-02-11T07:34:48.593Z,51.259533
2023-02-11T07:35:48.900Z,51.259529
2023-02-11T07:36:48.483Z,51.259563
2023-02-11T07:37:48.481Z,51.259491
2023-02-11T07:38:48.488Z,51.259445
2023-02-11T07:39:48.471Z,51.259441
2023-02-11T07:40:48.445Z,51.259510
2023-02-11T07:41:48.437Z,51.259495
2023-02-11T07:42:48.429Z,51.259533
2023-02-11T07:43:48.449Z,51.259521
2023-02-11T07:44:50.440Z,51.259537
2023-02-11T07:45:49.773Z,51.259567
2023-02-11T07:46:48.422Z,51.259529
2023-02-11T07:47:48.380Z,51.259472
2023-02-11T07:48:48.403Z,51.259525
2023-02-11T07:49:48.379Z,51.259521
2023-02-11T07:50:48.351Z,51.259518
2023-02-11T07:51:48.350Z,51.259548
2023-02-11T07:52:48.348Z,51.259487
2023-02-11T07:53:48.336Z,51.259525
2023-02-11T07:54:48.445Z,51.259563
2023-02-11T07:55:48.488Z,51.259491
2023-02-11T07:56:48.293Z,51.259483
2023-02-11T07:57:48.292Z,51.259529
2023-02-11T07:58:48.279Z,51.259514
2023-02-11T07:59:48.357Z,51.259491
2023-02-11T08:00:48.315Z,51.259338
2023-02-11T08:01:48.281Z,51.259335
2023-02-11T08:02:48.241Z,51.259411
2023-02-11T08:03:48.246Z,51.259548
2023-02-11T08:04:48.219Z,51.259453
2023-02-11T08:05:48.337Z,51.259472
2023-02-11T08:06:48.196Z,51.259525
2023-02-11T08:07:48.185Z,51.259506
2023-02-11T08:08:48.197Z,51.259609
2023-02-11T08:09:49.182Z,51.259491
2023-02-11T08:10:48.360Z,51.259518
2023-02-11T08:11:48.150Z,51.259533
2023-02-11T08:12:48.131Z,51.259521
2023-02-11T08:13:48.136Z,51.259583
2023-02-11T08:14:48.159Z,51.259533
2023-02-11T08:15:48.365Z,51.259567
2023-02-11T08:16:48.174Z,51.259415
2023-02-11T08:17:48.082Z,51.259323
2023-02-11T08:18:48.090Z,51.259300
2023-02-11T08:19:48.058Z,51.259380
2023-02-11T08:20:48.171Z,51.259361
2023-02-11T08:21:48.049Z,51.259483
2023-02-11T08:22:48.032Z,51.259434
2023-02-11T08:23:48.033Z,51.259441
2023-02-11T08:24:50.093Z,51.259384
2023-02-11T08:25:48.022Z,51.259533
2023-02-11T08:26:47.985Z,51.259472
2023-02-11T08:27:48.010Z,51.259426
2023-02-11T08:28:47.981Z,51.259445
2023-02-11T08:29:47.965Z,51.259293
2023-02-11T08:30:48.027Z,51.259365
2023-02-11T08:31:47.956Z,51.259472
2023-02-11T08:32:47.929Z,51.259323
2023-02-11T08:33:47.929Z,51.259300
2023-02-11T08:34:47.911Z,51.259415
2023-02-11T08:35:47.893Z,51.259537
2023-02-11T08:36:47.881Z,51.259571
2023-02-11T08:37:48.880Z,51.259602
2023-02-11T08:38:47.924Z,51.259548
2023-02-11T08:39:47.856Z,51.259575
2023-02-11T08:40:47.844Z,51.259525
2023-02-11T08:41:47.840Z,51.259502
2023-02-11T08:42:47.830Z,51.259506
2023-02-11T08:43:47.839Z,51.259506
2023-02-11T08:44:47.807Z,51.259571
2023-02-11T08:45:47.892Z,51.259514
2023-02-11T08:46:47.807Z,51.259499
2023-02-11T08:47:47.781Z,51.259495
2023-02-11T08:48:47.850Z,51.259525
2023-02-11T08:49:47.769Z,51.259518
2023-02-11T08:50:47.762Z,51.259483
2023-02-11T08:51:47.752Z,51.259476
2023-02-11T08:52:47.732Z,51.259457
2023-02-11T08:53:47.757Z,51.259445
2023-02-11T08:54:47.720Z,51.259460
2023-02-11T08:55:47.703Z,51.259464
2023-02-11T08:56:47.695Z,51.259487
2023-02-11T08:57:47.674Z,51.259476
2023-02-11T08:58:47.781Z,51.259518
2023-02-11T08:59:47.676Z,51.259521
2023-02-11T09:00:47.684Z,51.259445
2023-02-11T09:01:47.722Z,51.259556
2023-02-11T09:02:47.644Z,51.259415
2023-02-11T09:03:47.653Z,51.259525
2023-02-11T09:04:47.620Z,51.259556
2023-02-11T09:05:47.619Z,51.259617
2023-02-11T09:06:47.628Z,51.259495
2023-02-11T09:07:47.602Z,51.259460
2023-02-11T09:08:47.626Z,51.259384
2023-02-11T09:09:47.578Z,51.259499
2023-02-11T09:10:47.574Z,51.259537
2023-02-11T09:11:47.551Z,51.259541
2023-02-11T09:12:47.549Z,51.259487
2023-02-11T09:13:47.565Z,51.259510
2023-02-11T09:14:47.529Z,51.259495
2023-02-11T09:15:47.545Z,51.259434
2023-02-11T09:16:47.542Z,51.259407
2023-02-11T09:17:47.500Z,51.259373
2023-02-11T09:18:47.600Z,51.259457
2023-02-11T09:19:47.484Z,51.259472
2023-02-11T09:20:47.483Z,51.259487
2023-02-11T09:21:47.469Z,51.259533
2023-02-11T09:22:47.463Z,51.259491
2023-02-11T09:23:47.479Z,51.259468
2023-02-11T09:24:47.444Z,51.259525
2023-02-11T09:25:47.430Z,51.259502
2023-02-11T09:26:47.421Z,51.259533
2023-02-11T09:27:47.400Z,51.259586
2023-02-11T09:28:47.424Z,51.259556
2023-02-11T09:29:48.449Z,51.259525
2023-02-11T09:30:47.483Z,51.259514
2023-02-11T09:31:47.547Z,51.259411
2023-02-11T09:32:47.344Z,51.259521
2023-02-11T09:33:47.337Z,51.259544
2023-02-11T09:34:47.338Z,51.259575
2023-02-11T09:35:47.316Z,51.259441
2023-02-11T09:36:47.301Z,51.259418
2023-02-11T09:37:47.290Z,51.259396
2023-02-11T09:38:47.300Z,51.259495
2023-02-11T09:39:47.292Z,51.259521
2023-02-11T09:40:48.424Z,51.259495
2023-02-11T09:41:47.255Z,51.259556
2023-02-11T09:42:47.234Z,51.259521
2023-02-11T09:43:47.234Z,51.259468
2023-02-11T09:44:47.237Z,51.259510
2023-02-11T09:45:47.227Z,51.259583
2023-02-11T09:46:47.198Z,51.259598
2023-02-11T09:47:47.176Z,51.259621
2023-02-11T09:48:47.176Z,51.259495
2023-02-11T09:49:47.184Z,51.259521
2023-02-11T09:50:47.178Z,51.259624
2023-02-11T09:51:47.137Z,51.259602
2023-02-11T09:52:47.120Z,51.259506
2023-02-11T09:53:47.117Z,51.259560
2023-02-11T09:54:47.102Z,51.259499
2023-02-11T09:55:47.115Z,51.259506
2023-02-11T09:56:47.076Z,51.259487
2023-02-11T09:57:47.069Z,51.259472
2023-02-11T09:58:47.087Z,51.259457
2023-02-11T09:59:47.043Z,51.259537
2023-02-11T10:00:47.034Z,51.259548
2023-02-11T10:01:47.111Z,51.259357
2023-02-11T10:02:47.008Z,51.259499
2023-02-11T10:03:47.010Z,51.259518
2023-02-11T10:04:47.001Z,51.259476
2023-02-11T10:05:46.973Z,51.259491
2023-02-11T10:06:46.967Z,51.259476
2023-02-11T10:07:46.956Z,51.259472
2023-02-11T10:08:46.945Z,51.259506
2023-02-11T10:09:46.959Z,51.259487
2023-02-11T10:10:46.953Z,51.259552
2023-02-11T10:11:46.918Z,51.259499
2023-02-11T10:12:46.912Z,51.259521
2023-02-11T10:13:46.884Z,51.259556
2023-02-11T10:14:46.912Z,51.259499
2023-02-11T10:15:46.913Z,51.259441
2023-02-11T10:16:46.859Z,51.259396
2023-02-11T10:17:46.850Z,51.259487
2023-02-11T10:18:46.834Z,51.259502
2023-02-11T10:19:46.911Z,51.259502
2023-02-11T10:20:46.816Z,51.259457
2023-02-11T10:21:46.805Z,51.259495
2023-02-11T10:22:46.796Z,51.259499
2023-02-11T10:23:46.787Z,51.259491
2023-02-11T10:24:46.809Z,51.259510
2023-02-11T10:25:46.759Z,51.259476
2023-02-11T10:26:46.757Z,51.259521
2023-02-11T10:27:46.738Z,51.259525
2023-02-11T10:28:46.730Z,51.259514
2023-02-11T10:29:46.741Z,51.259514
2023-02-11T10:30:46.767Z,51.259552
2023-02-11T10:31:46.719Z,51.259525
2023-02-11T10:32:46.689Z,51.259541
2023-02-11T10:33:46.667Z,51.259487
2023-02-11T10:34:46.672Z,51.259453
2023-02-11T10:35:46.656Z,51.259418
2023-02-11T10:36:46.661Z,51.259468
2023-02-11T10:37:46.624Z,51.259468
2023-02-11T10:38:46.614Z,51.259487
2023-02-11T10:39:46.625Z,51.259476
2023-02-11T10:40:46.614Z,51.259472
2023-02-11T10:41:46.595Z,51.259464
2023-02-11T10:42:46.581Z,51.259449
2023-02-11T10:43:46.561Z,51.259476
2023-02-11T10:44:46.632Z,51.259510
2023-02-11T10:45:46.551Z,51.259506
2023-02-11T10:46:46.602Z,51.259487
2023-02-11T10:47:46.573Z,51.259525
2023-02-11T10:48:46.505Z,51.259533
2023-02-11T10:49:46.539Z,51.259525
2023-02-11T10:50:46.485Z,51.259525
2023-02-11T10:51:46.471Z,51.259560
2023-02-11T10:52:46.460Z,51.259541
2023-02-11T10:53:46.458Z,51.259533
2023-02-11T10:54:46.449Z,51.259541
2023-02-11T10:55:46.422Z,51.259510
2023-02-11T10:56:46.476Z,51.259533
2023-02-11T10:57:46.418Z,51.259533
2023-02-11T10:58:46.403Z,51.259590
2023-02-11T10:59:46.382Z,51.259544
2023-02-11T11:00:46.372Z,51.259602
2023-02-11T11:01:46.452Z,51.259525
2023-02-11T11:02:46.352Z,51.259655
2023-02-11T11:03:46.341Z,51.259655
2023-02-11T11:04:46.385Z,51.259571
2023-02-11T11:05:46.313Z,51.259563
2023-02-11T11:06:46.311Z,51.259594
2023-02-11T11:07:46.300Z,51.259392
2023-02-11T11:08:46.278Z,51.259487
2023-02-11T11:09:46.345Z,51.259441
2023-02-11T11:10:46.260Z,51.259579
2023-02-11T11:11:46.246Z,51.259609
2023-02-11T11:12:46.272Z,51.259552
2023-02-11T11:13:46.228Z,51.259750
2023-02-11T11:14:46.215Z,51.259659
2023-02-11T11:15:46.219Z,51.259754
2023-02-11T11:16:46.201Z,51.259628
2023-02-11T11:17:46.215Z,51.259682
2023-02-11T11:18:46.174Z,51.259655
2023-02-11T11:19:46.192Z,51.259651
2023-02-11T11:20:46.142Z,51.259617
2023-02-11T11:21:46.141Z,51.259602
2023-02-11T11:22:46.128Z,51.259613
2023-02-11T11:23:46.120Z,51.259556
2023-02-11T11:24:46.139Z,51.259563